Time;durP1;ratioP1;P1;durP2;ratioP2;P2;SDS_P1;SDS_P2;PMS_P1;PMS_P2;Temp;Humidity;BMP_temperature;BMP_pressure;BME280_temperature;BME280_humidity;BME280_pressure;Samples;Min_cycle;Max_cycle;Signal;HPM_P1;HPM_P2
2022/12/08 00:01:10;;;;;;;;;;;;;;;4.20;78.73;101116.97;7350945;19;19927;-65
2022/12/08 00:03:37;;;;;;;;;;;;;;;4.20;78.71;101121.34;7348972;19;20454;-66
2022/12/08 00:11:37;;;;;;;;;;;;;;;4.21;78.13;101108.22;7349325;19;20271;-64
2022/12/08 00:14:04;;;;;;;;;;;;;;;4.23;78.20;101102.91;7348584;19;19945;-64
2022/12/08 00:16:31;;;;;;;;;;;;;;;4.22;78.23;101103.84;7348703;19;19922;-64
2022/12/08 00:18:58;;;;;;;;;;;;;;;4.22;78.38;101101.22;7350531;19;20169;-64
2022/12/08 00:21:24;;;;;;;;;;;;;;;4.23;78.28;101095.94;7346368;19;20065;-65
2022/12/08 00:23:53;;;;;;;;;;;;;;;4.25;79.24;101098.44;7349100;19;19974;-65
2022/12/08 00:26:20;;;;;;;;;;;;;;;4.24;79.04;101087.19;7349698;19;19930;-65
2022/12/08 00:28:47;;;;;;;;;;;;;;;4.22;78.80;101083.00;7350667;19;19923;-64
2022/12/08 00:31:13;;;;;;;;;;;;;;;4.20;78.34;101090.09;7348039;19;19914;-64
2022/12/08 00:33:40;;;;;;;;;;;;;;;4.20;78.37;101090.09;7350308;19;19927;-64
2022/12/08 00:36:07;;;;;;;;;;;;;;;4.18;78.75;101078.94;7346958;19;20531;-64
2022/12/08 00:38:35;;;;;;;;;;;;;;;4.16;78.56;101075.63;7349930;19;20500;-64
2022/12/08 00:41:02;;;;;;;;;;;;;;;4.12;78.27;101061.16;7350097;19;19922;-65
2022/12/08 00:43:30;;;;;;;;;;;;;;;4.07;78.47;101071.03;7351236;19;20591;-65
2022/12/08 00:45:57;;;;;;;;;;;;;;;4.04;78.90;101068.66;7354297;19;19926;-65
2022/12/08 00:48:24;;;;;;;;;;;;;;;4.04;80.00;101063.44;7357742;19;19922;-64
2022/12/08 00:50:50;;;;;;;;;;;;;;;4.06;80.31;101061.59;7355042;19;20413;-66
2022/12/08 00:53:17;;;;;;;;;;;;;;;4.04;79.67;101066.91;7356729;19;19914;-65
2022/12/08 00:55:44;;;;;;;;;;;;;;;4.02;79.47;101053.13;7355150;19;19926;-65
2022/12/08 00:58:10;;;;;;;;;;;;;;;4.04;79.20;101053.03;7354049;19;20618;-65
2022/12/08 01:00:39;;;;;;;;;;;;;;;4.00;78.76;101064.59;7357016;19;19923;-65
2022/12/08 01:03:08;;;;;;;;;;;;;;;3.99;79.11;101060.34;7356201;19;20522;-65
2022/12/08 01:05:35;;;;;;;;;;;;;;;4.02;79.83;101052.31;7355921;19;19918;-65
2022/12/08 01:08:04;;;;;;;;;;;;;;;4.02;79.01;101044.50;7352983;19;19919;-67
2022/12/08 01:10:30;;;;;;;;;;;;;;;4.01;78.75;101041.09;7357479;19;19926;-64
2022/12/08 01:12:57;;;;;;;;;;;;;;;3.99;78.51;101042.94;7355205;19;20011;-65
2022/12/08 01:15:24;;;;;;;;;;;;;;;3.96;78.76;101037.13;7356822;19;20356;-66
2022/12/08 01:17:51;;;;;;;;;;;;;;;3.91;78.23;101027.03;7355099;19;19923;-65
2022/12/08 01:20:17;;;;;;;;;;;;;;;3.84;78.29;101026.63;7356665;19;19915;-65
2022/12/08 01:22:44;;;;;;;;;;;;;;;3.83;78.73;101024.94;7350028;19;19923;-66
2022/12/08 01:25:11;;;;;;;;;;;;;;;3.81;78.90;101011.19;7356362;19;19919;-65
2022/12/08 01:27:37;;;;;;;;;;;;;;;3.81;78.74;101021.59;7354729;19;20429;-65
2022/12/08 01:30:05;;;;;;;;;;;;;;;3.79;78.60;101022.66;7356734;19;19937;-64
2022/12/08 01:32:33;;;;;;;;;;;;;;;3.81;79.01;101012.97;7353789;19;19925;-64
2022/12/08 01:35:00;;;;;;;;;;;;;;;3.82;78.87;101015.47;7355013;19;19922;-66
2022/12/08 01:37:28;;;;;;;;;;;;;;;3.82;78.83;101015.47;7350289;19;19941;-65
2022/12/08 01:39:55;;;;;;;;;;;;;;;3.80;79.10;101016.53;7357737;19;19922;-65
2022/12/08 01:42:26;;;;;;;;;;;;;;;3.78;79.31;101008.81;7356237;19;19945;-65
2022/12/08 01:45:16;;;;;;;;;;;;;;;3.80;79.78;101009.56;7356403;19;19926;-65
2022/12/08 01:47:44;;;;;;;;;;;;;;;3.84;79.21;101012.78;7353240;19;19915;-65
2022/12/08 01:50:12;;;;;;;;;;;;;;;3.84;79.11;101000.59;7355605;19;20467;-64
2022/12/08 01:52:45;;;;;;;;;;;;;;;3.83;79.32;101005.91;7349954;19;19915;-65
2022/12/08 01:55:19;;;;;;;;;;;;;;;3.80;78.77;101008.72;7355359;19;19926;-65
2022/12/08 01:57:48;;;;;;;;;;;;;;;3.79;78.47;101001.84;7355000;19;20581;-64
2022/12/08 02:00:16;;;;;;;;;;;;;;;3.75;79.51;101003.84;7355877;19;19944;-64
2022/12/08 02:02:46;;;;;;;;;;;;;;;3.68;79.54;101002.56;7354475;19;20491;-64
2022/12/08 02:05:13;;;;;;;;;;;;;;;3.66;79.60;101001.00;7354951;19;21308;-65
2022/12/08 02:07:40;;;;;;;;;;;;;;;3.64;80.17;101003.72;7351462;19;19927;-65
2022/12/08 02:10:07;;;;;;;;;;;;;;;3.60;80.02;100999.69;7356915;19;19939;-65
2022/12/08 02:12:33;;;;;;;;;;;;;;;3.57;80.01;101002.47;7354216;19;19947;-65
2022/12/08 02:15:00;;;;;;;;;;;;;;;3.55;79.72;101000.91;7355226;19;19927;-65
2022/12/08 02:17:39;;;;;;;;;;;;;;;3.54;79.14;101009.66;7354269;19;20278;-66
2022/12/08 02:20:24;;;;;;;;;;;;;;;3.53;79.51;101003.63;7357523;19;19923;-66
2022/12/08 02:22:59;;;;;;;;;;;;;;;3.53;79.67;101000.19;7348841;19;19921;-65
2022/12/08 02:25:50;;;;;;;;;;;;;;;3.53;79.43;100998.41;7354233;19;21134;-65
2022/12/08 02:28:37;;;;;;;;;;;;;;;3.50;79.40;100992.59;7353969;19;19930;-64
2022/12/08 02:31:04;;;;;;;;;;;;;;;3.48;79.16;100989.25;7353800;19;19958;-65
2022/12/08 02:33:40;;;;;;;;;;;;;;;3.44;79.14;100978.25;7353421;19;19929;-65
2022/12/08 02:36:25;;;;;;;;;;;;;;;3.45;79.59;100980.72;7348353;19;19961;-65
2022/12/08 02:38:52;;;;;;;;;;;;;;;3.49;80.05;100978.75;7352022;19;19922;-64
2022/12/08 02:41:32;;;;;;;;;;;;;;;3.49;79.89;100981.34;7353769;19;19930;-65
2022/12/08 02:44:04;;;;;;;;;;;;;;;3.50;79.52;100977.84;7348215;19;19923;-65
2022/12/08 02:46:39;;;;;;;;;;;;;;;3.46;79.40;100973.75;7352878;19;20718;-64
2022/12/08 02:49:06;;;;;;;;;;;;;;;3.43;79.68;100968.78;7354163;19;19923;-65
2022/12/08 02:51:33;;;;;;;;;;;;;;;3.41;79.60;100965.44;7349591;19;21425;-66
2022/12/08 02:54:01;;;;;;;;;;;;;;;3.42;79.27;100959.28;7354075;19;21056;-65
2022/12/08 02:56:27;;;;;;;;;;;;;;;3.43;79.62;100955.75;7353326;19;19923;-64
2022/12/08 02:59:00;;;;;;;;;;;;;;;3.45;80.58;100944.31;7350032;19;20469;-64
2022/12/08 03:01:42;;;;;;;;;;;;;;;3.45;80.16;100946.91;7352861;19;20232;-64
2022/12/08 03:04:15;;;;;;;;;;;;;;;3.41;79.53;100935.06;7349742;19;20212;-65
2022/12/08 03:06:45;;;;;;;;;;;;;;;3.38;79.26;100926.66;7345487;19;19938;-65
2022/12/08 03:09:31;;;;;;;;;;;;;;;3.40;79.48;100920.38;7352608;19;19957;-64
2022/12/08 03:12:00;;;;;;;;;;;;;;;3.41;79.25;100927.25;7350818;19;19919;-64
2022/12/08 03:14:29;;;;;;;;;;;;;;;3.39;78.97;100923.94;7355009;19;19915;-65
2022/12/08 03:16:57;;;;;;;;;;;;;;;3.35;79.28;100925.06;7351913;19;19938;-65
2022/12/08 03:19:26;;;;;;;;;;;;;;;3.35;79.13;100924.25;7349947;19;19919;-65
2022/12/08 03:22:01;;;;;;;;;;;;;;;3.35;79.45;100922.47;7349530;19;19961;-66
2022/12/08 03:24:36;;;;;;;;;;;;;;;3.32;79.67;100916.66;7348091;19;19931;-65
2022/12/08 03:27:06;;;;;;;;;;;;;;;3.33;79.66;100908.75;7352001;19;20300;-65
2022/12/08 03:29:33;;;;;;;;;;;;;;;3.33;80.04;100906.16;7350834;19;19923;-66
2022/12/08 03:32:06;;;;;;;;;;;;;;;3.33;80.36;100902.72;7349381;19;19944;-65
2022/12/08 03:34:34;;;;;;;;;;;;;;;3.32;80.18;100901.06;7353296;19;19923;-66
2022/12/08 03:37:01;;;;;;;;;;;;;;;3.34;80.50;100902.63;7345328;19;19921;-65
2022/12/08 03:39:28;;;;;;;;;;;;;;;3.33;80.18;100893.16;7351752;19;20720;-65
2022/12/08 03:41:55;;;;;;;;;;;;;;;3.31;79.64;100897.63;7351055;19;19923;-65
2022/12/08 03:44:21;;;;;;;;;;;;;;;3.31;79.71;100902.00;7350379;19;19935;-66
2022/12/08 03:46:48;;;;;;;;;;;;;;;3.31;79.83;100902.00;7351153;19;19941;-65
2022/12/08 03:49:15;;;;;;;;;;;;;;;3.27;80.58;100898.78;7350936;19;20731;-65
2022/12/08 03:51:41;;;;;;;;;;;;;;;3.28;81.20;100886.63;7346293;19;19958;-64
2022/12/08 03:54:08;;;;;;;;;;;;;;;3.24;82.37;100885.16;7351622;19;19922;-64
2022/12/08 03:56:36;;;;;;;;;;;;;;;3.22;82.65;100885.25;7351081;19;20292;-65
2022/12/08 03:59:04;;;;;;;;;;;;;;;3.21;82.45;100882.75;7352293;19;19996;-65
2022/12/08 04:01:30;;;;;;;;;;;;;;;3.16;81.87;100884.84;7351663;19;20581;-64
2022/12/08 04:03:57;;;;;;;;;;;;;;;3.11;81.15;100871.31;7350013;19;19919;-65
2022/12/08 04:06:24;;;;;;;;;;;;;;;3.11;81.89;100866.97;7347767;19;19927;-64
2022/12/08 04:08:51;;;;;;;;;;;;;;;3.10;82.92;100873.09;7350289;19;19955;-66
2022/12/08 04:11:18;;;;;;;;;;;;;;;3.12;81.69;100868.63;7347875;19;19927;-66
2022/12/08 04:13:45;;;;;;;;;;;;;;;3.12;81.29;100862.59;7348147;19;19951;-65
2022/12/08 04:16:15;;;;;;;;;;;;;;;3.12;80.91;100875.59;7348254;19;20504;-65
2022/12/08 04:18:43;;;;;;;;;;;;;;;3.13;81.24;100869.47;7351748;19;19925;-65
2022/12/08 04:21:10;;;;;;;;;;;;;;;3.09;80.60;100866.25;7352649;19;19953;-64
2022/12/08 04:23:37;;;;;;;;;;;;;;;3.07;80.48;100862.91;7353479;19;19923;-64
2022/12/08 04:26:04;;;;;;;;;;;;;;;3.11;80.73;100871.31;7356429;19;20375;-65
2022/12/08 04:28:31;;;;;;;;;;;;;;;3.12;80.86;100863.44;7357549;19;19931;-65
2022/12/08 04:30:58;;;;;;;;;;;;;;;3.10;80.93;100859.28;7354886;19;19926;-65
2022/12/08 04:33:25;;;;;;;;;;;;;;;3.07;80.58;100864.69;7357318;19;19957;-65
2022/12/08 04:35:51;;;;;;;;;;;;;;;3.05;80.65;100862.16;7353381;19;20623;-66
2022/12/08 04:38:18;;;;;;;;;;;;;;;3.03;80.30;100866.66;7357228;19;19949;-65
2022/12/08 04:40:45;;;;;;;;;;;;;;;3.04;80.78;100864.91;7356489;19;19923;-65
2022/12/08 04:43:12;;;;;;;;;;;;;;;3.05;80.90;100871.75;7356203;19;19945;-66
2022/12/08 04:45:39;;;;;;;;;;;;;;;3.05;80.65;100867.38;7355586;19;19954;-66
2022/12/08 04:48:06;;;;;;;;;;;;;;;3.06;80.45;100858.63;7352854;19;20410;-65
2022/12/08 04:50:33;;;;;;;;;;;;;;;3.08;80.79;100858.53;7356265;19;19926;-66
2022/12/08 04:53:00;;;;;;;;;;;;;;;3.10;80.70;100851.50;7350858;19;20027;-65
2022/12/08 04:55:26;;;;;;;;;;;;;;;3.10;80.33;100862.69;7356796;19;19941;-65
2022/12/08 04:57:53;;;;;;;;;;;;;;;3.08;80.24;100855.94;7355972;19;20055;-65
2022/12/08 05:00:20;;;;;;;;;;;;;;;3.06;81.05;100852.59;7357296;19;19923;-66
2022/12/08 05:02:46;;;;;;;;;;;;;;;3.00;80.64;100846.06;7356573;19;19923;-65
2022/12/08 05:05:13;;;;;;;;;;;;;;;2.98;80.73;100843.59;7352526;19;19949;-65
2022/12/08 05:07:40;;;;;;;;;;;;;;;2.96;80.98;100842.84;7350805;19;19958;-65
2022/12/08 05:10:07;;;;;;;;;;;;;;;2.96;81.14;100839.41;7355421;19;20482;-67
2022/12/08 05:12:33;;;;;;;;;;;;;;;2.95;80.93;100835.97;7357173;19;19927;-66
2022/12/08 05:15:00;;;;;;;;;;;;;;;2.95;80.74;100843.78;7356710;19;19919;-65
2022/12/08 05:17:27;;;;;;;;;;;;;;;2.92;80.80;100851.78;7355253;19;20187;-64
2022/12/08 05:19:54;;;;;;;;;;;;;;;2.88;80.58;100844.31;7357937;19;20780;-64
2022/12/08 05:22:27;;;;;;;;;;;;;;;2.89;81.06;100836.41;7350305;19;19945;-66
2022/12/08 05:24:54;;;;;;;;;;;;;;;2.87;81.13;100837.44;7356114;19;20691;-66
2022/12/08 05:27:21;;;;;;;;;;;;;;;2.84;81.15;100833.31;7354825;19;19930;-66
2022/12/08 05:29:49;;;;;;;;;;;;;;;2.82;81.19;100834.31;7354175;19;19918;-66
2022/12/08 05:32:15;;;;;;;;;;;;;;;2.82;81.46;100837.75;7354986;19;19918;-67
2022/12/08 05:34:42;;;;;;;;;;;;;;;2.83;81.59;100847.22;7355630;19;19935;-66
2022/12/08 05:37:09;;;;;;;;;;;;;;;2.85;81.53;100842.72;7350534;19;19922;-66
2022/12/08 05:39:35;;;;;;;;;;;;;;;2.87;81.26;100832.25;7357436;19;19945;-66
2022/12/08 05:42:02;;;;;;;;;;;;;;;2.90;81.54;100832.88;7354297;19;19919;-66
2022/12/08 05:44:29;;;;;;;;;;;;;;;2.87;81.62;100827.88;7355544;19;20205;-66
2022/12/08 05:46:55;;;;;;;;;;;;;;;2.91;81.91;100825.91;7354832;19;19919;-66
2022/12/08 05:49:22;;;;;;;;;;;;;;;2.92;81.32;100828.41;7355566;19;19919;-66
2022/12/08 05:51:49;;;;;;;;;;;;;;;2.92;81.59;100817.19;7351793;19;19942;-66
2022/12/08 05:54:16;;;;;;;;;;;;;;;2.94;81.90;100817.91;7353153;19;19918;-65
2022/12/08 05:56:42;;;;;;;;;;;;;;;2.93;81.63;100814.50;7353835;19;19922;-66
2022/12/08 05:59:09;;;;;;;;;;;;;;;2.90;80.84;100821.63;7355691;19;19919;-66
2022/12/08 06:01:36;;;;;;;;;;;;;;;2.89;81.39;100818.25;7356411;19;19931;-66
2022/12/08 06:04:03;;;;;;;;;;;;;;;2.91;82.58;100816.34;7354811;19;19967;-64
2022/12/08 06:06:30;;;;;;;;;;;;;;;2.91;82.30;100813.75;7350050;19;19918;-66
2022/12/08 06:08:57;;;;;;;;;;;;;;;2.85;82.03;100813.31;7354516;19;20223;-66
2022/12/08 06:11:25;;;;;;;;;;;;;;;2.82;81.41;100826.53;7354671;19;19937;-66
2022/12/08 06:13:53;;;;;;;;;;;;;;;2.82;81.99;100811.78;7355088;19;19926;-66
2022/12/08 06:16:21;;;;;;;;;;;;;;;2.81;81.76;100815.31;7353924;19;19926;-65
2022/12/08 06:18:48;;;;;;;;;;;;;;;2.79;81.52;100819.78;7352090;19;20287;-67
2022/12/08 06:21:15;;;;;;;;;;;;;;;2.76;81.73;100817.38;7351424;19;20003;-66
2022/12/08 06:23:42;;;;;;;;;;;;;;;2.73;81.81;100819.38;7350934;19;20589;-66
2022/12/08 06:26:13;;;;;;;;;;;;;;;2.72;81.98;100808.13;7354607;19;19927;-66
2022/12/08 06:28:41;;;;;;;;;;;;;;;2.72;81.97;100812.50;7353138;19;19923;-67
2022/12/08 06:31:09;;;;;;;;;;;;;;;2.73;81.75;100811.56;7349940;19;19926;-65
2022/12/08 06:33:37;;;;;;;;;;;;;;;2.73;81.80;100808.97;7354145;19;19919;-67
2022/12/08 06:36:04;;;;;;;;;;;;;;;2.75;82.46;100815.72;7351778;19;20224;-66
2022/12/08 06:38:31;;;;;;;;;;;;;;;2.78;82.05;100818.13;7353849;19;20504;-65
2022/12/08 06:40:58;;;;;;;;;;;;;;;2.80;82.72;100812.81;7354236;19;20216;-65
2022/12/08 06:43:25;;;;;;;;;;;;;;;2.78;82.48;100814.69;7351354;19;19919;-66
2022/12/08 06:45:52;;;;;;;;;;;;;;;2.79;82.56;100813.75;7349722;19;20722;-66
2022/12/08 06:48:19;;;;;;;;;;;;;;;2.81;82.47;100811.88;7351135;19;19933;-64
2022/12/08 06:50:45;;;;;;;;;;;;;;;2.82;82.30;100813.53;7349835;19;19923;-65
2022/12/08 06:53:13;;;;;;;;;;;;;;;2.84;82.00;100798.69;7352888;19;20042;-64
2022/12/08 06:55:50;;;;;;;;;;;;;;;2.86;81.94;100797.66;7353292;19;20343;-66
2022/12/08 06:58:24;;;;;;;;;;;;;;;2.84;81.94;100794.34;7352909;19;19919;-66
2022/12/08 07:00:52;;;;;;;;;;;;;;;2.84;83.44;100796.94;7353466;19;21439;-66
2022/12/08 07:03:30;;;;;;;;;;;;;;;2.83;84.16;100800.47;7352641;19;19950;-67
2022/12/08 07:06:13;;;;;;;;;;;;;;;2.83;84.53;100799.63;7344994;19;19937;-66
2022/12/08 07:08:39;;;;;;;;;;;;;;;2.79;83.93;100806.81;7351195;19;20472;-66
2022/12/08 07:11:09;;;;;;;;;;;;;;;2.78;83.70;100814.69;7351338;19;19954;-64
2022/12/08 07:13:42;;;;;;;;;;;;;;;2.75;83.25;100815.72;7352593;19;19926;-65
2022/12/08 07:16:10;;;;;;;;;;;;;;;2.77;82.99;100811.25;7352281;19;19934;-64
2022/12/08 07:18:37;;;;;;;;;;;;;;;2.78;82.85;100817.28;7351178;19;21638;-65
2022/12/08 07:21:05;;;;;;;;;;;;;;;2.77;82.58;100813.84;7342976;19;20302;-64
2022/12/08 07:23:32;;;;;;;;;;;;;;;2.76;82.54;100803.56;7349708;19;19927;-66
2022/12/08 07:26:00;;;;;;;;;;;;;;;2.76;82.46;100806.16;7349577;19;19918;-66
2022/12/08 07:28:28;;;;;;;;;;;;;;;2.74;81.99;100811.47;7349679;19;19930;-65
2022/12/08 07:30:55;;;;;;;;;;;;;;;2.74;81.91;100806.28;7349452;19;19929;-65
2022/12/08 07:33:21;;;;;;;;;;;;;;;2.71;81.81;100816.88;7353180;19;20366;-64
2022/12/08 07:35:55;;;;;;;;;;;;;;;2.73;81.66;100811.56;7345429;19;19922;-65
2022/12/08 07:38:22;;;;;;;;;;;;;;;2.71;81.98;100821.22;7350003;19;19923;-66
2022/12/08 07:40:49;;;;;;;;;;;;;;;2.73;82.33;100807.22;7350498;19;19930;-65
2022/12/08 07:43:16;;;;;;;;;;;;;;;2.70;81.94;100801.38;7352043;19;20394;-65
2022/12/08 07:45:43;;;;;;;;;;;;;;;2.68;82.13;100800.66;7342940;19;19938;-64
2022/12/08 07:48:09;;;;;;;;;;;;;;;2.69;82.00;100802.34;7350642;19;19922;-64
2022/12/08 07:50:36;;;;;;;;;;;;;;;2.69;81.55;100800.56;7349133;19;19930;-66
2022/12/08 07:53:03;;;;;;;;;;;;;;;2.72;82.10;100795.16;7346660;19;19953;-65
2022/12/08 07:55:31;;;;;;;;;;;;;;;2.75;82.06;100801.91;7350830;19;19919;-65
2022/12/08 07:57:57;;;;;;;;;;;;;;;2.76;81.62;100804.41;7347289;19;20375;-64
2022/12/08 08:00:24;;;;;;;;;;;;;;;2.79;81.70;100806.81;7348539;19;19938;-65
2022/12/08 08:02:51;;;;;;;;;;;;;;;2.81;81.74;100796.28;7350024;19;19923;-65
2022/12/08 08:05:18;;;;;;;;;;;;;;;2.78;81.61;100789.56;7349279;19;20250;-65
2022/12/08 08:07:47;;;;;;;;;;;;;;;2.81;81.73;100786.72;7344048;19;19927;-67
2022/12/08 08:10:13;;;;;;;;;;;;;;;2.81;81.33;100791.94;7352128;19;19922;-68
2022/12/08 08:12:40;;;;;;;;;;;;;;;2.82;81.33;100792.75;7349570;19;20638;-65
2022/12/08 08:15:08;;;;;;;;;;;;;;;2.82;81.46;100792.75;7348197;19;19922;-64
2022/12/08 08:17:35;;;;;;;;;;;;;;;2.80;81.39;100795.44;7346946;19;19923;-65
2022/12/08 08:20:05;;;;;;;;;;;;;;;2.83;81.57;100799.63;7352533;19;19934;-64
2022/12/08 08:22:36;;;;;;;;;;;;;;;2.82;81.33;100792.75;7344310;19;20395;-65
2022/12/08 08:25:05;;;;;;;;;;;;;;;2.79;81.12;100798.19;7353484;19;19915;-65
2022/12/08 08:27:32;;;;;;;;;;;;;;;2.79;81.25;100793.81;7347626;19;19922;-64
2022/12/08 08:29:58;;;;;;;;;;;;;;;2.83;81.79;100797.03;7349338;19;19926;-65
2022/12/08 08:32:31;;;;;;;;;;;;;;;2.85;82.81;100790.78;7346752;19;19963;-63
2022/12/08 08:35:01;;;;;;;;;;;;;;;2.87;82.21;100790.69;7347292;19;19923;-64
2022/12/08 08:37:44;;;;;;;;;;;;;;;2.90;82.06;100783.50;7340972;19;19923;-65
2022/12/08 08:40:15;;;;;;;;;;;;;;;2.91;81.28;100772.19;7348898;19;21144;-67
2022/12/08 08:42:42;;;;;;;;;;;;;;;2.95;81.29;100770.19;7348135;19;19927;-65
2022/12/08 08:45:09;;;;;;;;;;;;;;;2.97;81.24;100774.38;7350476;19;19942;-66
2022/12/08 08:47:36;;;;;;;;;;;;;;;3.00;81.50;100778.50;7345554;19;19930;-66
2022/12/08 08:50:03;;;;;;;;;;;;;;;3.04;81.31;100773.94;7350719;19;19965;-65
2022/12/08 08:52:33;;;;;;;;;;;;;;;3.04;81.08;100761.78;7342748;19;20261;-65
2022/12/08 08:54:59;;;;;;;;;;;;;;;3.05;81.06;100762.63;7348596;19;19923;-67
2022/12/08 08:57:26;;;;;;;;;;;;;;;3.08;81.32;100765.00;7347904;19;20286;-66
2022/12/08 08:59:53;;;;;;;;;;;;;;;3.11;81.01;100760.41;7350587;19;19923;-66
2022/12/08 09:02:26;;;;;;;;;;;;;;;3.15;80.32;100754.06;7347666;19;20270;-65
2022/12/08 09:04:52;;;;;;;;;;;;;;;3.21;80.27;100753.63;7348482;19;19949;-67
2022/12/08 09:07:19;;;;;;;;;;;;;;;3.22;79.77;100751.88;7347815;19;19922;-65
2022/12/08 09:09:46;;;;;;;;;;;;;;;3.27;80.26;100757.56;7354420;19;20339;-65
2022/12/08 09:12:13;;;;;;;;;;;;;;;3.26;79.06;100761.09;7355986;19;20336;-67
2022/12/08 09:14:40;;;;;;;;;;;;;;;3.26;78.92;100759.34;7359447;19;19930;-67
2022/12/08 09:17:07;;;;;;;;;;;;;;;3.28;79.13;100760.06;7356408;19;19927;-64
2022/12/08 09:19:34;;;;;;;;;;;;;;;3.30;78.88;100755.56;7359998;19;20444;-64
2022/12/08 09:22:00;;;;;;;;;;;;;;;3.29;78.68;100759.13;7355156;19;19926;-65
2022/12/08 09:24:27;;;;;;;;;;;;;;;3.35;78.62;100756.06;7355644;19;19930;-66
2022/12/08 09:26:55;;;;;;;;;;;;;;;3.40;78.73;100751.38;7358218;19;19926;-64
2022/12/08 09:29:23;;;;;;;;;;;;;;;3.45;78.26;100756.28;7358780;19;19923;-65
2022/12/08 09:31:49;;;;;;;;;;;;;;;3.47;78.25;100745.75;7356181;19;19923;-66
2022/12/08 09:34:16;;;;;;;;;;;;;;;3.51;77.87;100750.63;7358626;19;19974;-66
2022/12/08 09:36:43;;;;;;;;;;;;;;;3.53;77.77;100747.91;7352182;19;19923;-64
2022/12/08 09:39:10;;;;;;;;;;;;;;;3.54;77.34;100749.59;7356797;19;19938;-67
2022/12/08 09:41:45;;;;;;;;;;;;;;;3.56;77.52;100751.13;7355367;19;19919;-65
2022/12/08 09:44:32;;;;;;;;;;;;;;;3.59;77.51;100745.72;7353749;19;19925;-65
2022/12/08 09:47:00;;;;;;;;;;;;;;;3.60;77.14;100754.34;7355605;19;21899;-64
2022/12/08 09:49:38;;;;;;;;;;;;;;;3.60;76.85;100755.19;7354305;19;19982;-65
2022/12/08 09:52:09;;;;;;;;;;;;;;;3.60;76.75;100750.00;7299160;19;21740;-67
2022/12/08 09:54:36;;;;;;;;;;;;;;;3.63;77.09;100751.53;7337644;19;20767;-65
2022/12/08 09:57:06;;;;;;;;;;;;;;;3.64;77.13;100751.41;7346142;19;21671;-66
2022/12/08 09:59:33;;;;;;;;;;;;;;;3.67;76.55;100748.59;7346638;19;19923;-64
2022/12/08 10:02:01;;;;;;;;;;;;;;;3.71;76.33;100754.38;7345501;19;19919;-66
2022/12/08 10:04:31;;;;;;;;;;;;;;;3.75;76.65;100755.84;7351076;19;19915;-65
2022/12/08 10:07:16;;;;;;;;;;;;;;;3.77;76.65;100749.56;7342495;19;19911;-65
2022/12/08 10:09:48;;;;;;;;;;;;;;;3.80;76.60;100754.56;7349117;19;20213;-64
2022/12/08 10:12:38;;;;;;;;;;;;;;;3.82;76.30;100746.63;7347331;19;20371;-65
2022/12/08 10:15:23;;;;;;;;;;;;;;;3.86;76.18;100761.06;7349358;19;20383;-66
2022/12/08 10:17:50;;;;;;;;;;;;;;;3.89;76.42;100758.28;7346174;19;20264;-65
2022/12/08 10:20:24;;;;;;;;;;;;;;;3.93;76.38;100740.66;7351570;19;19922;-65
2022/12/08 10:23:11;;;;;;;;;;;;;;;3.95;76.13;100742.22;7346014;19;19927;-65
2022/12/08 10:25:44;;;;;;;;;;;;;;;4.02;76.18;100738.19;7345977;19;19961;-66
2022/12/08 10:28:11;;;;;;;;;;;;;;;4.04;75.78;100732.88;7346194;19;19945;-66
2022/12/08 10:30:38;;;;;;;;;;;;;;;4.05;75.56;100724.16;7347660;19;19922;-65
2022/12/08 10:33:08;;;;;;;;;;;;;;;4.07;76.12;100717.88;7347311;19;19923;-65
2022/12/08 10:36:03;;;;;;;;;;;;;;;4.10;75.98;100712.44;7346504;19;19944;-66
2022/12/08 10:38:38;;;;;;;;;;;;;;;4.14;75.63;100708.66;7346369;19;19922;-65
2022/12/08 10:41:08;;;;;;;;;;;;;;;4.21;75.75;100703.84;7347212;19;20652;-65
2022/12/08 10:43:48;;;;;;;;;;;;;;;4.27;75.49;100714.59;7346631;19;19919;-65
2022/12/08 10:46:17;;;;;;;;;;;;;;;4.29;74.92;100699.72;7343187;19;19914;-65
2022/12/08 10:48:52;;;;;;;;;;;;;;;4.35;74.99;100705.41;7348216;19;19918;-65
2022/12/08 10:51:27;;;;;;;;;;;;;;;4.39;74.66;100704.22;7347728;19;19949;-66
2022/12/08 10:53:56;;;;;;;;;;;;;;;4.43;74.37;100710.84;7349864;19;20010;-66
2022/12/08 10:56:25;;;;;;;;;;;;;;;4.47;75.66;100702.66;7340268;19;19968;-66
2022/12/08 10:59:04;;;;;;;;;;;;;;;4.54;75.95;100703.03;7351326;19;19978;-67
2022/12/08 11:01:36;;;;;;;;;;;;;;;4.58;74.97;100699.25;7350392;19;19915;-67
2022/12/08 11:04:14;;;;;;;;;;;;;;;4.58;74.45;100694.88;7351036;19;19922;-66
2022/12/08 11:06:41;;;;;;;;;;;;;;;4.64;73.92;100690.97;7345629;19;19915;-65
2022/12/08 11:09:17;;;;;;;;;;;;;;;4.66;74.09;100692.53;7350785;19;19939;-65
2022/12/08 11:11:46;;;;;;;;;;;;;;;4.68;73.68;100690.59;7348989;19;19934;-64
2022/12/08 11:14:19;;;;;;;;;;;;;;;4.74;73.54;100681.50;7352576;19;19925;-65
2022/12/08 11:16:46;;;;;;;;;;;;;;;4.75;73.36;100683.16;7349516;19;20538;-65
2022/12/08 11:19:17;;;;;;;;;;;;;;;4.79;73.60;100688.94;7350780;19;19927;-66
2022/12/08 11:21:43;;;;;;;;;;;;;;;4.78;73.88;100677.69;7345477;19;19934;-66
2022/12/08 11:24:13;;;;;;;;;;;;;;;4.82;74.07;100680.91;7345843;19;19960;-65
2022/12/08 11:26:44;;;;;;;;;;;;;;;4.85;73.85;100672.84;7351668;19;20478;-68
2022/12/08 11:29:11;;;;;;;;;;;;;;;4.89;74.12;100680.28;7350164;19;19966;-66
2022/12/08 11:32:04;;;;;;;;;;;;;;;4.92;73.66;100676.63;7347980;19;19915;-65
2022/12/08 11:34:40;;;;;;;;;;;;;;;4.98;74.46;100674.34;7348195;19;20338;-64
2022/12/08 11:37:11;;;;;;;;;;;;;;;5.04;74.27;100679.09;7345030;19;20198;-64
2022/12/08 11:39:43;;;;;;;;;;;;;;;5.09;74.07;100670.91;7348157;19;19914;-65
2022/12/08 11:42:11;;;;;;;;;;;;;;;5.08;73.85;100670.06;7349269;19;20399;-65
2022/12/08 11:44:38;;;;;;;;;;;;;;;5.12;74.68;100665.47;7349724;19;19938;-65
2022/12/08 11:47:15;;;;;;;;;;;;;;;5.15;74.13;100660.00;7346876;19;19931;-66
2022/12/08 11:49:42;;;;;;;;;;;;;;;5.20;74.08;100660.44;7351064;19;19914;-66
2022/12/08 11:52:21;;;;;;;;;;;;;;;5.24;74.43;100658.41;7340869;19;20590;-64
2022/12/08 11:55:22;;;;;;;;;;;;;;;5.28;74.12;100662.47;7344487;19;19923;-66
2022/12/08 11:57:50;;;;;;;;;;;;;;;5.34;73.91;100647.13;7333328;19;19986;-64
2022/12/08 12:00:17;;;;;;;;;;;;;;;5.37;73.12;100652.13;7343905;19;19945;-65
2022/12/08 12:02:48;;;;;;;;;;;;;;;5.37;72.97;100657.34;7345339;19;19915;-65
2022/12/08 12:05:24;;;;;;;;;;;;;;;5.40;72.83;100648.41;7346162;19;19918;-64
2022/12/08 12:08:29;;;;;;;;;;;;;;;5.44;72.79;100642.81;7343127;19;20964;-65
2022/12/08 12:11:08;;;;;;;;;;;;;;;5.51;72.92;100640.56;7345118;19;19948;-65
2022/12/08 12:13:54;;;;;;;;;;;;;;;5.53;72.41;100636.88;7346196;19;20601;-65
2022/12/08 12:16:39;;;;;;;;;;;;;;;5.53;72.47;100638.66;7345003;19;19934;-64
2022/12/08 12:19:15;;;;;;;;;;;;;;;5.55;73.27;100636.72;7346025;19;19922;-67
2022/12/08 12:21:47;;;;;;;;;;;;;;;5.58;71.94;100639.13;7343093;19;19923;-65
2022/12/08 12:24:30;;;;;;;;;;;;;;;5.58;72.89;100632.13;7342937;19;19937;-66
2022/12/08 12:27:05;;;;;;;;;;;;;;;5.64;71.81;100632.56;7343129;19;19918;-66
2022/12/08 12:29:33;;;;;;;;;;;;;;;5.66;71.58;100633.25;7348930;19;20284;-66
2022/12/08 12:32:02;;;;;;;;;;;;;;;5.62;71.59;100632.69;7341609;19;19945;-65
2022/12/08 12:34:31;;;;;;;;;;;;;;;5.63;72.02;100623.91;7344592;19;19914;-66
2022/12/08 12:37:09;;;;;;;;;;;;;;;5.67;71.29;100632.28;7338670;19;19970;-66
2022/12/08 12:39:47;;;;;;;;;;;;;;;5.67;71.01;100630.53;7338000;19;20520;-64
2022/12/08 12:42:37;;;;;;;;;;;;;;;5.63;70.65;100623.06;7345439;19;20633;-65
2022/12/08 12:45:14;;;;;;;;;;;;;;;5.63;71.42;100620.47;7353162;19;19937;-65
2022/12/08 12:47:44;;;;;;;;;;;;;;;5.65;71.47;100624.59;7350408;19;20533;-64
2022/12/08 12:50:33;;;;;;;;;;;;;;;5.68;71.38;100613.09;7352958;19;19982;-65
2022/12/08 12:53:15;;;;;;;;;;;;;;;5.69;71.93;100609.53;7353620;19;19939;-65
2022/12/08 12:55:53;;;;;;;;;;;;;;;5.72;71.79;100606.66;7354876;19;19929;-65
2022/12/08 12:58:29;;;;;;;;;;;;;;;5.76;71.39;100601.03;7348881;19;19938;-66
2022/12/08 13:01:14;;;;;;;;;;;;;;;5.83;70.98;100596.16;7355676;19;19923;-67
2022/12/08 13:03:46;;;;;;;;;;;;;;;5.88;70.40;100597.44;7353373;19;19959;-66
2022/12/08 13:06:14;;;;;;;;;;;;;;;5.89;70.33;100593.06;7346978;19;19915;-66
2022/12/08 13:08:51;;;;;;;;;;;;;;;5.92;70.68;100590.19;7354856;19;19922;-65